createdAt,value
2023-07-03T00:01:59.813Z,13.27
2023-07-03T00:04:36.823Z,13.77
2023-07-03T00:07:07.273Z,18.83
2023-07-03T00:09:37.057Z,16.43
2023-07-03T00:12:07.195Z,19.38
2023-07-03T00:14:36.940Z,16.73
2023-07-03T00:17:08.914Z,18.13
2023-07-03T00:19:41.341Z,14.63
2023-07-03T00:22:11.192Z,18.38
2023-07-03T00:24:40.924Z,16.23
2023-07-03T00:27:11.031Z,19.90
2023-07-03T00:29:40.804Z,14.48
2023-07-03T00:32:11.535Z,18.50
2023-07-03T00:34:44.069Z,22.80
2023-07-03T00:37:15.608Z,17.03
2023-07-03T00:39:45.574Z,21.45
2023-07-03T00:42:15.388Z,19.47
2023-07-03T00:44:45.145Z,20.77
2023-07-03T00:47:15.561Z,19.80
2023-07-03T00:49:47.990Z,14.45
2023-07-03T00:52:18.829Z,17.67
2023-07-03T00:54:48.693Z,19.17
2023-07-03T00:57:20.108Z,15.32
2023-07-03T00:59:49.893Z,21.88
2023-07-03T01:02:23.436Z,15.98
2023-07-03T01:04:59.663Z,16.50
2023-07-03T01:07:31.242Z,17.20
2023-07-03T01:10:05.050Z,19.30
2023-07-03T01:12:37.790Z,20.75
2023-07-03T01:15:13.124Z,18.95
2023-07-03T01:17:44.778Z,19.30
2023-07-03T01:20:19.592Z,17.27
2023-07-03T01:22:53.308Z,16.10
2023-07-03T01:25:27.806Z,16.27
2023-07-03T01:28:00.236Z,16.35
2023-07-03T01:30:31.323Z,17.03
2023-07-03T01:33:01.860Z,19.42
2023-07-03T01:35:32.020Z,16.92
2023-07-03T01:38:02.412Z,22.47
2023-07-03T01:40:35.220Z,20.50
2023-07-03T01:43:05.526Z,13.48
2023-07-03T01:45:37.532Z,19.83
2023-07-03T01:48:07.886Z,19.10
2023-07-03T01:50:38.973Z,16.55
2023-07-03T01:53:12.142Z,19.40
2023-07-03T01:55:50.642Z,18.13
2023-07-03T01:58:27.154Z,16.98
2023-07-03T02:01:00.287Z,18.90
2023-07-03T02:03:34.965Z,16.85
2023-07-03T02:06:07.751Z,17.98
2023-07-03T02:08:37.675Z,17.83
2023-07-03T02:11:16.649Z,16.67
2023-07-03T02:13:49.189Z,18.60
2023-07-03T02:16:19.921Z,15.00
2023-07-03T02:18:50.751Z,19.60
2023-07-03T02:21:21.100Z,13.95
2023-07-03T02:23:51.279Z,22.00
2023-07-03T02:26:23.690Z,24.58
2023-07-03T02:28:53.575Z,19.50
2023-07-03T02:31:23.450Z,20.35
2023-07-03T02:33:53.252Z,20.90
2023-07-03T02:36:25.679Z,24.42
2023-07-03T02:38:55.605Z,20.10
2023-07-03T02:41:27.969Z,20.45
2023-07-03T02:43:59.711Z,18.75
2023-07-03T02:46:32.896Z,23.35
2023-07-03T02:49:02.732Z,18.95
2023-07-03T02:51:32.807Z,18.67
2023-07-03T02:54:07.083Z,20.63
2023-07-03T02:56:40.548Z,15.75
2023-07-03T02:59:10.544Z,25.70
2023-07-03T03:01:40.680Z,21.30
2023-07-03T03:04:10.696Z,18.67
2023-07-03T03:06:40.556Z,21.38
2023-07-03T03:09:10.733Z,20.63
2023-07-03T03:11:43.894Z,20.00
2023-07-03T03:14:15.587Z,22.08
2023-07-03T03:16:45.630Z,22.33
2023-07-03T03:19:15.396Z,22.83
2023-07-03T03:21:45.217Z,17.45
2023-07-03T03:24:15.043Z,27.67
2023-07-03T03:26:47.482Z,22.97
2023-07-03T03:29:17.983Z,23.48
2023-07-03T03:31:47.913Z,19.17
2023-07-03T03:34:18.000Z,25.63
2023-07-03T03:36:47.868Z,17.83
2023-07-03T03:39:17.650Z,27.35
2023-07-03T03:41:50.506Z,20.27
2023-07-03T03:44:20.482Z,19.95
2023-07-03T03:46:51.253Z,28.60
2023-07-03T03:49:21.127Z,23.23
2023-07-03T03:51:51.991Z,21.10
2023-07-03T03:54:22.862Z,18.95
2023-07-03T03:56:55.361Z,27.90
2023-07-03T03:59:25.690Z,17.05
2023-07-03T04:01:55.781Z,21.98
2023-07-03T04:04:25.696Z,21.48
2023-07-03T04:06:55.625Z,24.08
2023-07-03T04:09:25.348Z,25.10
2023-07-03T04:11:57.621Z,23.20
2023-07-03T04:14:27.479Z,22.65
2023-07-03T04:16:58.739Z,22.25
2023-07-03T04:19:31.393Z,19.90
2023-07-03T04:22:02.118Z,18.73
2023-07-03T04:24:31.890Z,27.75
2023-07-03T04:27:04.582Z,18.80
2023-07-03T04:29:34.651Z,25.45
2023-07-03T04:32:04.477Z,27.02
2023-07-03T04:34:34.329Z,29.63
2023-07-03T04:37:04.687Z,27.92
2023-07-03T04:39:34.784Z,22.85
2023-07-03T04:42:08.935Z,22.63
2023-07-03T04:44:38.757Z,25.25
2023-07-03T04:47:09.109Z,27.50
2023-07-03T04:49:39.188Z,21.30
2023-07-03T04:52:10.475Z,21.10
2023-07-03T04:54:40.804Z,22.77
2023-07-03T04:57:13.666Z,23.13
2023-07-03T04:59:44.790Z,25.88
2023-07-03T05:02:18.570Z,20.23
2023-07-03T05:04:48.589Z,27.05
2023-07-03T05:07:21.663Z,23.50
2023-07-03T05:09:51.438Z,29.25
2023-07-03T05:12:24.060Z,25.05
2023-07-03T05:14:53.884Z,28.92
2023-07-03T05:17:23.584Z,31.05
2023-07-03T05:19:54.331Z,27.83
2023-07-03T05:22:24.161Z,30.83
2023-07-03T05:24:54.023Z,32.35
2023-07-03T05:27:26.418Z,28.80
2023-07-03T05:29:56.243Z,26.90
2023-07-03T05:32:26.012Z,25.23
2023-07-03T05:34:55.810Z,27.77
2023-07-03T05:37:25.974Z,29.73
2023-07-03T05:39:56.890Z,26.38
2023-07-03T05:42:29.392Z,24.43
2023-07-03T05:44:59.293Z,20.13
2023-07-03T05:47:29.230Z,25.08
2023-07-03T05:49:59.387Z,27.42
2023-07-03T05:52:29.189Z,29.50
2023-07-03T05:54:59.514Z,27.00
2023-07-03T05:57:31.801Z,20.50
2023-07-03T06:00:01.878Z,27.50
2023-07-03T06:02:31.660Z,25.87
2023-07-03T06:05:01.510Z,25.90
2023-07-03T06:07:31.400Z,23.77
2023-07-03T06:10:01.329Z,27.13
2023-07-03T06:12:33.726Z,25.50
2023-07-03T06:15:04.684Z,21.30
2023-07-03T06:17:34.500Z,21.88
2023-07-03T06:20:04.331Z,28.80
2023-07-03T06:22:34.116Z,24.92
2023-07-03T06:25:03.888Z,25.88
2023-07-03T06:27:36.319Z,22.42
2023-07-03T06:30:06.734Z,23.10
2023-07-03T06:32:36.494Z,22.87
2023-07-03T06:35:07.154Z,26.48
2023-07-03T06:37:38.213Z,28.30
2023-07-03T06:40:10.720Z,29.55
2023-07-03T06:42:43.215Z,29.13
2023-07-03T06:45:19.809Z,28.03
2023-07-03T06:47:49.662Z,27.98
2023-07-03T06:50:19.530Z,23.60
2023-07-03T06:52:50.882Z,25.38
2023-07-03T06:55:20.860Z,19.03
2023-07-03T06:57:53.156Z,24.02
2023-07-03T07:00:23.666Z,26.38
2023-07-03T07:02:53.525Z,26.00
2023-07-03T07:05:23.440Z,25.90
2023-07-03T07:07:53.286Z,26.40
2023-07-03T07:10:25.526Z,22.73
2023-07-03T07:12:58.004Z,24.53
2023-07-03T07:15:27.925Z,27.30
2023-07-03T07:17:57.693Z,27.60
2023-07-03T07:20:27.621Z,18.30
2023-07-03T07:22:57.348Z,22.20
2023-07-03T07:25:27.150Z,16.88
2023-07-03T07:27:59.613Z,25.37
2023-07-03T07:30:29.692Z,19.02
2023-07-03T07:32:59.497Z,20.50
2023-07-03T07:35:29.355Z,23.20
2023-07-03T07:37:59.086Z,24.85
2023-07-03T07:40:28.830Z,34.83
2023-07-03T07:43:01.215Z,28.27
2023-07-03T07:45:31.309Z,21.02
2023-07-03T07:48:01.155Z,17.90
2023-07-03T07:50:31.838Z,20.17
2023-07-03T07:53:01.671Z,28.23
2023-07-03T07:55:31.629Z,25.45
2023-07-03T07:58:04.001Z,21.42
2023-07-03T08:00:35.880Z,20.65
2023-07-03T08:03:09.516Z,17.58
2023-07-03T08:05:40.209Z,19.20
2023-07-03T08:08:10.056Z,16.13
2023-07-03T08:10:39.726Z,18.85
2023-07-03T08:13:12.106Z,25.67
2023-07-03T08:15:41.867Z,17.73
2023-07-03T08:18:11.836Z,26.58
2023-07-03T08:20:41.651Z,24.92
2023-07-03T08:23:11.400Z,21.65
2023-07-03T08:25:41.228Z,19.25
2023-07-03T08:28:13.947Z,22.80
2023-07-03T08:30:43.767Z,24.23
2023-07-03T08:33:13.613Z,19.38
2023-07-03T08:38:16.504Z,20.02
2023-07-03T08:40:46.403Z,18.20
2023-07-03T08:43:22.322Z,17.25
2023-07-03T08:45:53.361Z,21.45
2023-07-03T08:48:25.241Z,18.08
2023-07-03T08:50:57.191Z,15.23
2023-07-03T08:53:30.635Z,19.85
2023-07-03T08:56:05.076Z,20.00
2023-07-03T08:58:37.501Z,21.27
2023-07-03T09:01:10.887Z,16.92
2023-07-03T09:03:49.025Z,20.20
2023-07-03T09:06:23.378Z,15.35
2023-07-03T09:08:59.988Z,15.10
2023-07-03T09:11:30.534Z,24.00
2023-07-03T09:14:04.694Z,21.35
2023-07-03T09:16:34.928Z,13.32
2023-07-03T09:19:07.104Z,15.05
2023-07-03T09:21:38.313Z,15.82
2023-07-03T09:24:13.756Z,14.82
2023-07-03T09:26:47.975Z,21.02
2023-07-03T09:29:20.856Z,22.48
2023-07-03T09:31:51.002Z,13.40
2023-07-03T09:34:20.843Z,13.77
2023-07-03T09:37:00.301Z,14.98
2023-07-03T09:39:30.580Z,14.60
2023-07-03T09:42:09.095Z,10.43
2023-07-03T09:44:44.592Z,17.92
2023-07-03T09:47:20.980Z,16.02
2023-07-03T09:49:51.000Z,14.33
2023-07-03T09:52:20.846Z,20.23
2023-07-03T09:54:51.137Z,18.55
2023-07-03T09:57:27.952Z,13.57
2023-07-03T10:00:16.043Z,13.95
2023-07-03T10:07:53.395Z,13.00
2023-07-03T10:13:01.075Z,15.20
2023-07-03T10:15:37.245Z,18.50
2023-07-03T10:18:09.835Z,15.43
2023-07-03T10:20:45.214Z,11.63
2023-07-03T10:23:20.111Z,14.68
2023-07-03T10:25:54.723Z,14.13
2023-07-03T10:28:27.731Z,15.98
2023-07-03T10:31:02.990Z,12.43
2023-07-03T10:33:36.489Z,12.75
2023-07-03T10:36:09.233Z,11.20
2023-07-03T10:38:44.977Z,25.95
2023-07-03T10:41:18.857Z,14.25
2023-07-03T10:43:54.169Z,14.50
2023-07-03T10:46:31.165Z,11.95
2023-07-03T10:49:04.346Z,16.15
2023-07-03T10:51:41.163Z,18.55
2023-07-03T10:54:15.092Z,12.30
2023-07-03T10:56:49.017Z,15.45
2023-07-03T10:59:23.801Z,14.02
2023-07-03T11:02:03.796Z,15.18
2023-07-03T11:04:41.081Z,15.77
2023-07-03T11:07:17.416Z,14.18
2023-07-03T11:09:55.398Z,11.68
2023-07-03T11:12:30.264Z,11.98
2023-07-03T11:15:15.082Z,13.63
2023-07-03T11:23:16.100Z,15.18
2023-07-03T11:28:31.112Z,20.00
2023-07-03T11:31:02.970Z,16.60
2023-07-03T11:36:09.853Z,9.82
2023-07-03T11:43:51.824Z,11.32
2023-07-03T11:46:25.682Z,15.63
2023-07-03T11:49:02.434Z,13.02
2023-07-03T11:51:39.603Z,18.70
2023-07-03T11:54:21.555Z,13.02
2023-07-03T11:56:57.264Z,16.50
2023-07-03T11:59:35.951Z,17.40
2023-07-03T12:02:48.258Z,13.67
2023-07-03T12:05:48.649Z,19.10
2023-07-03T12:08:48.842Z,20.83
2023-07-03T12:11:19.990Z,16.83
2023-07-03T12:13:53.171Z,16.88
2023-07-03T12:16:28.943Z,13.98
2023-07-03T12:19:00.791Z,16.33
2023-07-03T12:21:37.286Z,15.10
2023-07-03T12:24:25.932Z,13.52
2023-07-03T12:27:01.786Z,13.50
2023-07-03T12:29:32.213Z,14.13
2023-07-03T12:32:07.113Z,15.73
2023-07-03T12:34:38.266Z,15.23
2023-07-03T12:37:11.158Z,14.98
2023-07-03T12:39:45.731Z,19.17
2023-07-03T12:42:18.604Z,15.25
2023-07-03T12:44:48.454Z,22.67
2023-07-03T12:47:19.922Z,16.58
2023-07-03T12:49:55.286Z,15.23
2023-07-03T12:52:25.718Z,20.73
2023-07-03T12:55:14.072Z,17.55
2023-07-03T12:57:45.663Z,17.15
2023-07-03T13:00:21.355Z,15.90
2023-07-03T13:02:51.153Z,15.80
2023-07-03T13:05:24.567Z,13.10
2023-07-03T13:07:54.949Z,15.40
2023-07-03T13:10:27.731Z,17.00
2023-07-03T13:13:08.658Z,13.25
2023-07-03T13:15:39.800Z,15.70
2023-07-03T13:18:12.584Z,21.13
2023-07-03T13:20:43.184Z,14.77
2023-07-03T13:23:13.262Z,23.02
2023-07-03T13:25:53.953Z,17.10
2023-07-03T13:28:27.717Z,15.80
2023-07-03T13:31:13.219Z,15.35
2023-07-03T13:33:44.595Z,18.02
2023-07-03T13:36:26.478Z,17.08
2023-07-03T13:39:03.891Z,15.88
2023-07-03T13:41:36.607Z,14.60
2023-07-03T13:44:08.796Z,16.58
2023-07-03T13:46:39.934Z,11.40
2023-07-03T13:49:10.269Z,12.30
2023-07-03T13:51:41.936Z,11.95
2023-07-03T13:54:13.366Z,15.75
2023-07-03T13:56:46.593Z,15.38
2023-07-03T13:59:16.867Z,14.88
2023-07-03T14:01:47.229Z,14.50
2023-07-03T14:04:17.059Z,11.65
2023-07-03T14:06:47.593Z,15.80
2023-07-03T14:09:17.334Z,14.00
2023-07-03T14:11:49.708Z,16.20
2023-07-03T14:14:19.563Z,16.55
2023-07-03T14:16:50.547Z,14.60
2023-07-03T14:19:20.588Z,10.48
2023-07-03T14:21:50.785Z,13.27
2023-07-03T14:24:20.710Z,14.65
2023-07-03T14:26:53.105Z,9.75
2023-07-03T14:29:22.959Z,12.70
2023-07-03T14:31:52.785Z,13.53
2023-07-03T14:34:22.591Z,14.02
2023-07-03T14:36:52.496Z,13.63
2023-07-03T14:39:22.243Z,15.18
2023-07-03T14:41:56.027Z,11.25
2023-07-03T14:44:25.950Z,11.55
2023-07-03T14:46:57.001Z,12.55
2023-07-03T14:49:26.918Z,12.50
2023-07-03T14:51:57.093Z,13.65
2023-07-03T14:54:27.531Z,13.45
2023-07-03T14:56:59.976Z,18.23
2023-07-03T14:59:29.821Z,13.70
2023-07-03T15:01:59.666Z,15.38
2023-07-03T15:04:29.998Z,15.93
2023-07-03T15:06:59.888Z,16.40
2023-07-03T15:09:29.622Z,11.40
2023-07-03T15:12:02.013Z,10.20
2023-07-03T15:14:31.848Z,13.13
2023-07-03T15:17:02.480Z,18.83
2023-07-03T15:19:32.547Z,12.98
2023-07-03T15:22:02.509Z,19.75
2023-07-03T15:24:32.241Z,12.20
2023-07-03T15:27:06.320Z,12.27
2023-07-03T15:29:36.181Z,11.73
2023-07-03T15:32:05.942Z,17.75
2023-07-03T15:34:35.725Z,14.23
2023-07-03T15:37:05.529Z,16.20
2023-07-03T15:39:35.326Z,14.07
2023-07-03T15:42:07.966Z,15.65
2023-07-03T15:44:37.772Z,15.02
2023-07-03T15:47:09.182Z,16.83
2023-07-03T15:49:39.417Z,16.50
2023-07-03T15:52:10.784Z,12.20
2023-07-03T15:54:40.628Z,19.95
2023-07-03T15:57:12.960Z,21.00
2023-07-03T15:59:42.821Z,17.65
2023-07-03T16:02:12.599Z,11.80
2023-07-03T16:04:45.625Z,18.98
2023-07-03T16:07:15.554Z,17.48
2023-07-03T16:09:45.480Z,18.35
2023-07-03T16:12:17.913Z,15.50
2023-07-03T16:14:49.072Z,15.18
2023-07-03T16:17:19.184Z,18.10
2023-07-03T16:20:09.753Z,18.23
2023-07-03T16:22:40.661Z,19.65
2023-07-03T16:25:11.365Z,23.13
2023-07-03T16:27:43.952Z,17.52
2023-07-03T16:30:14.435Z,15.50
2023-07-03T16:32:44.236Z,18.20
2023-07-03T16:35:13.976Z,15.35
2023-07-03T16:37:43.758Z,17.98
2023-07-03T16:40:14.537Z,18.45
2023-07-03T16:42:47.026Z,19.83
2023-07-03T16:45:17.562Z,15.05
2023-07-03T16:47:47.306Z,20.10
2023-07-03T16:50:17.345Z,16.85
2023-07-03T16:52:47.571Z,23.02
2023-07-03T16:55:17.556Z,17.27
2023-07-03T16:57:50.099Z,16.52
2023-07-03T17:00:20.266Z,16.80
2023-07-03T17:02:50.149Z,16.13
2023-07-03T17:05:19.963Z,19.13
2023-07-03T17:07:49.707Z,17.92
2023-07-03T17:10:19.541Z,18.30
2023-07-03T17:12:52.173Z,18.45
2023-07-03T17:15:23.245Z,18.13
2023-07-03T17:17:53.083Z,16.40
2023-07-03T17:20:23.050Z,19.15
2023-07-03T17:22:52.780Z,16.70
2023-07-03T17:25:22.565Z,18.38
2023-07-03T17:27:54.885Z,15.30
2023-07-03T17:30:24.704Z,20.20
2023-07-03T17:32:54.534Z,20.60
2023-07-03T17:35:24.343Z,17.27
2023-07-03T17:37:54.234Z,18.95
2023-07-03T17:40:23.973Z,17.90
2023-07-03T17:42:56.549Z,16.73
2023-07-03T17:45:26.327Z,22.02
2023-07-03T17:47:56.097Z,16.33
2023-07-03T17:50:25.924Z,20.17
2023-07-03T17:52:55.672Z,14.82
2023-07-03T17:55:26.556Z,17.03
2023-07-03T17:57:58.934Z,20.27
2023-07-03T18:00:28.796Z,24.27
2023-07-03T18:03:00.354Z,17.67
2023-07-03T18:05:30.636Z,19.55
2023-07-03T18:08:00.447Z,17.48
2023-07-03T18:10:32.220Z,16.38
2023-07-03T18:13:04.777Z,16.43
2023-07-03T18:15:47.214Z,14.30
2023-07-03T18:18:20.903Z,21.73
2023-07-03T18:20:51.009Z,13.18
2023-07-03T18:23:21.370Z,14.95
2023-07-03T18:25:52.085Z,16.00
2023-07-03T18:28:24.821Z,22.50
2023-07-03T18:31:01.308Z,16.85
2023-07-03T18:33:33.306Z,17.63
2023-07-03T18:36:04.752Z,18.60
2023-07-03T18:38:35.583Z,17.08
2023-07-03T18:41:06.971Z,21.00
2023-07-03T18:43:39.378Z,17.93
2023-07-03T18:46:09.671Z,18.63
2023-07-03T18:48:40.336Z,17.83
2023-07-03T18:51:14.937Z,17.98
2023-07-03T18:53:45.320Z,22.63
2023-07-03T18:56:17.148Z,19.15
2023-07-03T18:58:49.564Z,21.92
2023-07-03T19:01:20.895Z,23.10
2023-07-03T19:03:51.274Z,20.93
2023-07-03T19:06:23.489Z,23.27
2023-07-03T19:08:53.258Z,23.48
2023-07-03T19:11:23.035Z,20.00
2023-07-03T19:13:56.110Z,23.80
2023-07-03T19:16:26.181Z,16.10
2023-07-03T19:18:56.490Z,15.77
2023-07-03T19:21:26.263Z,21.15
2023-07-03T19:23:58.551Z,19.65
2023-07-03T19:26:30.557Z,18.85
2023-07-03T19:29:02.929Z,19.58
2023-07-03T19:31:32.937Z,17.35
2023-07-03T19:34:05.212Z,15.63
2023-07-03T19:36:35.208Z,20.60
2023-07-03T19:39:05.010Z,18.77
2023-07-03T19:41:34.775Z,17.77
2023-07-03T19:44:07.213Z,17.30
2023-07-03T19:46:37.064Z,13.33
2023-07-03T19:49:06.890Z,17.15
2023-07-03T19:51:36.771Z,19.35
2023-07-03T19:54:07.338Z,19.88
2023-07-03T19:56:37.310Z,15.75
2023-07-03T19:59:10.984Z,22.63
2023-07-03T20:01:40.861Z,14.88
2023-07-03T20:04:10.622Z,17.33
2023-07-03T20:06:40.477Z,18.75
2023-07-03T20:09:10.239Z,14.10
2023-07-03T20:11:40.190Z,16.27
2023-07-03T20:14:12.673Z,14.43
2023-07-03T20:16:44.063Z,35.17
2023-07-03T20:19:14.604Z,25.70
2023-07-03T20:21:44.397Z,31.50
2023-07-03T20:24:14.629Z,27.83
2023-07-03T20:26:44.446Z,17.00
2023-07-03T20:29:16.903Z,16.45
2023-07-03T20:31:46.743Z,27.92
2023-07-03T20:34:16.604Z,20.42
2023-07-03T20:36:46.363Z,16.15
2023-07-03T20:39:16.143Z,13.13
2023-07-03T20:41:46.013Z,17.17
2023-07-03T20:44:18.529Z,14.68
2023-07-03T20:46:49.168Z,12.30
2023-07-03T20:49:19.202Z,16.05
2023-07-03T20:51:53.920Z,12.23
2023-07-03T20:54:34.444Z,17.48
2023-07-03T20:57:05.440Z,19.00
2023-07-03T20:59:38.938Z,19.42
2023-07-03T21:02:09.743Z,14.18
2023-07-03T21:04:40.930Z,14.65
2023-07-03T21:07:10.755Z,13.25
2023-07-03T21:09:41.164Z,15.90
2023-07-03T21:12:11.433Z,18.58
2023-07-03T21:14:43.969Z,19.17
2023-07-03T21:17:13.837Z,19.65
2023-07-03T21:19:44.079Z,15.05
2023-07-03T21:22:13.892Z,14.20
2023-07-03T21:24:43.710Z,18.23
2023-07-03T21:27:13.586Z,11.32
2023-07-03T21:29:46.442Z,15.15
2023-07-03T21:32:18.264Z,12.73
2023-07-03T21:34:51.415Z,13.05
2023-07-03T21:37:21.883Z,8.90
2023-07-03T21:39:51.759Z,10.88
2023-07-03T21:42:21.578Z,11.13
2023-07-03T21:44:53.997Z,14.07
2023-07-03T21:47:23.893Z,10.05
2023-07-03T21:49:53.768Z,12.57
2023-07-03T21:52:23.554Z,13.15
2023-07-03T21:54:53.365Z,11.70
2023-07-03T21:57:23.207Z,11.40
2023-07-03T21:59:55.609Z,15.93
2023-07-03T22:02:26.291Z,11.35
2023-07-03T22:04:56.308Z,11.80
2023-07-03T22:07:26.076Z,14.68
2023-07-03T22:09:55.845Z,10.30
2023-07-03T22:12:25.917Z,15.98
2023-07-03T22:14:58.234Z,12.27
2023-07-03T22:17:28.111Z,10.95
2023-07-03T22:19:57.817Z,8.25
2023-07-03T22:22:27.979Z,10.52
2023-07-03T22:24:57.783Z,14.80
2023-07-03T22:27:27.627Z,11.40
2023-07-03T22:30:00.329Z,9.32
2023-07-03T22:32:30.758Z,10.00
2023-07-03T22:35:00.626Z,14.77
2023-07-03T22:37:30.413Z,13.20
2023-07-03T22:40:00.198Z,12.32
2023-07-03T22:42:29.995Z,13.68
2023-07-03T22:45:02.359Z,10.13
2023-07-03T22:47:32.682Z,13.27
2023-07-03T22:50:04.126Z,9.93
2023-07-03T22:52:34.490Z,10.60
2023-07-03T22:55:05.686Z,11.70
2023-07-03T22:57:36.749Z,9.70
2023-07-03T23:00:12.205Z,9.52
2023-07-03T23:02:42.403Z,11.85
2023-07-03T23:05:13.792Z,8.30
2023-07-03T23:07:43.744Z,16.25
2023-07-03T23:10:14.946Z,15.25
2023-07-03T23:12:44.768Z,13.40
2023-07-03T23:15:17.268Z,12.88
2023-07-03T23:17:47.367Z,11.15
2023-07-03T23:20:17.582Z,11.00
2023-07-03T23:22:47.410Z,14.90
2023-07-03T23:25:17.371Z,14.43
2023-07-03T23:27:47.427Z,13.80
2023-07-03T23:30:20.045Z,13.25
2023-07-03T23:32:50.119Z,10.98
2023-07-03T23:35:20.051Z,11.27
2023-07-03T23:37:49.782Z,12.43
2023-07-03T23:40:19.929Z,12.80
2023-07-03T23:42:50.919Z,8.95
2023-07-03T23:45:23.261Z,14.20
2023-07-03T23:47:53.217Z,10.60
2023-07-03T23:50:23.045Z,15.30
2023-07-03T23:52:54.241Z,10.90
2023-07-03T23:55:24.143Z,12.80
2023-07-03T23:57:53.851Z,9.35
